sensor_id;sensor_type;location;lat;lon;timestamp;P1;durP1;ratioP1;P2;durP2;ratioP2
55655;SDS011;41530;52.382;5.270;2022-10-23T00:00:28;3.67;;;2.22;;
55655;SDS011;41530;52.382;5.270;2022-10-23T00:02:55;6.90;;;2.40;;
55655;SDS011;41530;52.382;5.270;2022-10-23T00:05:22;4.60;;;2.22;;
55655;SDS011;41530;52.382;5.270;2022-10-23T00:07:51;4.93;;;2.08;;
55655;SDS011;41530;52.382;5.270;2022-10-23T00:10:18;5.25;;;2.30;;
55655;SDS011;41530;52.382;5.270;2022-10-23T00:12:45;4.63;;;2.05;;
55655;SDS011;41530;52.382;5.270;2022-10-23T00:15:12;5.18;;;2.20;;
55655;SDS011;41530;52.382;5.270;2022-10-23T00:17:38;5.20;;;2.40;;
55655;SDS011;41530;52.382;5.270;2022-10-23T00:20:06;4.35;;;2.40;;
55655;SDS011;41530;52.382;5.270;2022-10-23T00:22:32;5.63;;;2.25;;
55655;SDS011;41530;52.382;5.270;2022-10-23T00:24:59;4.20;;;2.42;;
55655;SDS011;41530;52.382;5.270;2022-10-23T00:27:26;3.53;;;1.83;;
55655;SDS011;41530;52.382;5.270;2022-10-23T00:29:52;5.38;;;2.30;;
55655;SDS011;41530;52.382;5.270;2022-10-23T00:32:18;9.02;;;2.83;;
55655;SDS011;41530;52.382;5.270;2022-10-23T00:34:45;4.43;;;2.20;;
55655;SDS011;41530;52.382;5.270;2022-10-23T00:37:11;5.40;;;2.40;;
55655;SDS011;41530;52.382;5.270;2022-10-23T00:39:38;4.53;;;2.30;;
55655;SDS011;41530;52.382;5.270;2022-10-23T00:42:04;4.95;;;2.30;;
55655;SDS011;41530;52.382;5.270;2022-10-23T00:46:57;3.20;;;2.08;;
55655;SDS011;41530;52.382;5.270;2022-10-23T00:49:24;4.65;;;2.30;;
55655;SDS011;41530;52.382;5.270;2022-10-23T00:51:51;5.30;;;2.15;;
55655;SDS011;41530;52.382;5.270;2022-10-23T00:54:19;5.15;;;2.28;;
55655;SDS011;41530;52.382;5.270;2022-10-23T00:56:50;5.82;;;2.50;;
55655;SDS011;41530;52.382;5.270;2022-10-23T00:59:16;6.63;;;2.70;;
55655;SDS011;41530;52.382;5.270;2022-10-23T01:01:43;3.75;;;2.08;;
55655;SDS011;41530;52.382;5.270;2022-10-23T01:04:10;4.63;;;2.42;;
55655;SDS011;41530;52.382;5.270;2022-10-23T01:06:41;3.58;;;2.53;;
55655;SDS011;41530;52.382;5.270;2022-10-23T01:09:27;4.55;;;2.13;;
55655;SDS011;41530;52.382;5.270;2022-10-23T01:11:57;5.72;;;2.03;;
55655;SDS011;41530;52.382;5.270;2022-10-23T01:14:33;2.50;;;1.73;;
55655;SDS011;41530;52.382;5.270;2022-10-23T01:27:34;5.07;;;2.20;;
55655;SDS011;41530;52.382;5.270;2022-10-23T01:35:15;5.50;;;1.92;;
55655;SDS011;41530;52.382;5.270;2022-10-23T01:37:44;3.00;;;2.05;;
55655;SDS011;41530;52.382;5.270;2022-10-23T01:40:26;5.30;;;2.05;;
55655;SDS011;41530;52.382;5.270;2022-10-23T01:42:55;2.53;;;1.92;;
55655;SDS011;41530;52.382;5.270;2022-10-23T01:47:50;4.80;;;1.98;;
55655;SDS011;41530;52.382;5.270;2022-10-23T01:50:17;4.63;;;1.88;;
55655;SDS011;41530;52.382;5.270;2022-10-23T01:52:45;5.70;;;2.42;;
55655;SDS011;41530;52.382;5.270;2022-10-23T01:55:11;3.40;;;1.90;;
55655;SDS011;41530;52.382;5.270;2022-10-23T01:57:38;3.88;;;1.90;;
55655;SDS011;41530;52.382;5.270;2022-10-23T02:00:10;2.90;;;1.75;;
55655;SDS011;41530;52.382;5.270;2022-10-23T02:02:37;4.10;;;2.20;;
55655;SDS011;41530;52.382;5.270;2022-10-23T02:07:34;5.60;;;2.15;;
55655;SDS011;41530;52.382;5.270;2022-10-23T02:10:02;5.32;;;2.03;;
55655;SDS011;41530;52.382;5.270;2022-10-23T02:15:16;4.15;;;2.05;;
55655;SDS011;41530;52.382;5.270;2022-10-23T02:17:59;3.63;;;1.95;;
55655;SDS011;41530;52.382;5.270;2022-10-23T02:22:59;3.47;;;1.90;;
55655;SDS011;41530;52.382;5.270;2022-10-23T02:25:28;4.50;;;1.80;;
55655;SDS011;41530;52.382;5.270;2022-10-23T02:27:55;3.25;;;1.95;;
55655;SDS011;41530;52.382;5.270;2022-10-23T02:30:23;3.83;;;1.70;;
55655;SDS011;41530;52.382;5.270;2022-10-23T02:32:50;4.78;;;2.00;;
55655;SDS011;41530;52.382;5.270;2022-10-23T02:35:18;5.20;;;1.90;;
55655;SDS011;41530;52.382;5.270;2022-10-23T02:37:55;2.58;;;1.77;;
55655;SDS011;41530;52.382;5.270;2022-10-23T02:40:22;3.88;;;1.85;;
55655;SDS011;41530;52.382;5.270;2022-10-23T02:42:52;2.75;;;1.83;;
55655;SDS011;41530;52.382;5.270;2022-10-23T02:45:28;4.03;;;1.83;;
55655;SDS011;41530;52.382;5.270;2022-10-23T02:48:13;4.18;;;2.05;;
55655;SDS011;41530;52.382;5.270;2022-10-23T02:56:35;4.45;;;1.85;;
55655;SDS011;41530;52.382;5.270;2022-10-23T02:58:38;4.07;;;1.85;;
55655;SDS011;41530;52.382;5.270;2022-10-23T03:01:07;5.18;;;1.80;;
55655;SDS011;41530;52.382;5.270;2022-10-23T03:03:46;2.65;;;1.67;;
55655;SDS011;41530;52.382;5.270;2022-10-23T03:06:14;3.13;;;1.90;;
55655;SDS011;41530;52.382;5.270;2022-10-23T03:08:49;3.20;;;1.80;;
55655;SDS011;41530;52.382;5.270;2022-10-23T03:28:21;2.28;;;1.30;;
55655;SDS011;41530;52.382;5.270;2022-10-23T03:30:48;4.38;;;1.63;;
55655;SDS011;41530;52.382;5.270;2022-10-23T03:33:14;4.82;;;1.85;;
55655;SDS011;41530;52.382;5.270;2022-10-23T03:35:40;3.67;;;1.70;;
55655;SDS011;41530;52.382;5.270;2022-10-23T03:38:07;3.53;;;1.42;;
55655;SDS011;41530;52.382;5.270;2022-10-23T03:40:33;3.25;;;1.73;;
55655;SDS011;41530;52.382;5.270;2022-10-23T03:43:00;2.25;;;1.55;;
55655;SDS011;41530;52.382;5.270;2022-10-23T03:45:26;4.03;;;1.85;;
55655;SDS011;41530;52.382;5.270;2022-10-23T03:47:52;8.20;;;1.83;;
55655;SDS011;41530;52.382;5.270;2022-10-23T03:50:19;2.92;;;1.73;;
55655;SDS011;41530;52.382;5.270;2022-10-23T03:52:45;2.28;;;1.48;;
55655;SDS011;41530;52.382;5.270;2022-10-23T03:55:11;3.20;;;1.90;;
55655;SDS011;41530;52.382;5.270;2022-10-23T03:57:38;2.50;;;1.40;;
55655;SDS011;41530;52.382;5.270;2022-10-23T04:00:05;4.15;;;1.73;;
55655;SDS011;41530;52.382;5.270;2022-10-23T04:02:32;2.53;;;1.52;;
55655;SDS011;41530;52.382;5.270;2022-10-23T04:04:58;6.00;;;2.05;;
55655;SDS011;41530;52.382;5.270;2022-10-23T04:07:24;6.20;;;2.10;;
55655;SDS011;41530;52.382;5.270;2022-10-23T04:09:51;4.22;;;2.20;;
55655;SDS011;41530;52.382;5.270;2022-10-23T04:12:17;6.28;;;2.15;;
55655;SDS011;41530;52.382;5.270;2022-10-23T04:14:44;7.95;;;2.30;;
55655;SDS011;41530;52.382;5.270;2022-10-23T04:17:10;5.80;;;2.42;;
55655;SDS011;41530;52.382;5.270;2022-10-23T04:19:36;5.70;;;2.33;;
55655;SDS011;41530;52.382;5.270;2022-10-23T04:22:03;4.65;;;1.98;;
55655;SDS011;41530;52.382;5.270;2022-10-23T04:24:29;8.40;;;2.22;;
55655;SDS011;41530;52.382;5.270;2022-10-23T04:26:55;7.43;;;1.85;;
55655;SDS011;41530;52.382;5.270;2022-10-23T04:29:22;4.50;;;2.13;;
55655;SDS011;41530;52.382;5.270;2022-10-23T04:31:49;5.15;;;1.60;;
55655;SDS011;41530;52.382;5.270;2022-10-23T04:34:17;5.63;;;1.83;;
55655;SDS011;41530;52.382;5.270;2022-10-23T04:36:43;4.97;;;1.88;;
55655;SDS011;41530;52.382;5.270;2022-10-23T04:39:10;7.15;;;2.10;;
55655;SDS011;41530;52.382;5.270;2022-10-23T04:41:36;4.88;;;1.88;;
55655;SDS011;41530;52.382;5.270;2022-10-23T04:44:04;5.18;;;2.13;;
55655;SDS011;41530;52.382;5.270;2022-10-23T04:46:30;3.28;;;1.77;;
55655;SDS011;41530;52.382;5.270;2022-10-23T04:48:56;4.72;;;1.75;;
55655;SDS011;41530;52.382;5.270;2022-10-23T04:51:23;2.95;;;1.85;;
55655;SDS011;41530;52.382;5.270;2022-10-23T04:53:49;5.22;;;2.00;;
55655;SDS011;41530;52.382;5.270;2022-10-23T04:56:15;2.75;;;1.67;;
55655;SDS011;41530;52.382;5.270;2022-10-23T04:58:42;2.42;;;1.50;;
55655;SDS011;41530;52.382;5.270;2022-10-23T05:01:08;6.90;;;1.90;;
55655;SDS011;41530;52.382;5.270;2022-10-23T05:03:38;7.18;;;2.28;;
55655;SDS011;41530;52.382;5.270;2022-10-23T05:06:04;3.05;;;1.63;;
55655;SDS011;41530;52.382;5.270;2022-10-23T05:08:31;3.20;;;1.63;;
55655;SDS011;41530;52.382;5.270;2022-10-23T05:10:57;3.47;;;1.73;;
55655;SDS011;41530;52.382;5.270;2022-10-23T05:13:24;3.35;;;1.70;;
55655;SDS011;41530;52.382;5.270;2022-10-23T05:15:50;4.82;;;1.85;;
55655;SDS011;41530;52.382;5.270;2022-10-23T05:18:39;6.65;;;1.85;;
55655;SDS011;41530;52.382;5.270;2022-10-23T05:21:05;4.70;;;1.73;;
55655;SDS011;41530;52.382;5.270;2022-10-23T05:23:33;4.25;;;1.73;;
55655;SDS011;41530;52.382;5.270;2022-10-23T05:26:01;6.18;;;2.15;;
55655;SDS011;41530;52.382;5.270;2022-10-23T05:28:28;3.85;;;1.73;;
55655;SDS011;41530;52.382;5.270;2022-10-23T05:30:56;2.08;;;1.52;;
55655;SDS011;41530;52.382;5.270;2022-10-23T05:33:24;3.33;;;1.55;;
55655;SDS011;41530;52.382;5.270;2022-10-23T05:35:50;3.15;;;1.70;;
55655;SDS011;41530;52.382;5.270;2022-10-23T05:38:17;3.47;;;1.80;;
55655;SDS011;41530;52.382;5.270;2022-10-23T05:40:43;4.07;;;1.85;;
55655;SDS011;41530;52.382;5.270;2022-10-23T05:43:10;3.63;;;1.55;;
55655;SDS011;41530;52.382;5.270;2022-10-23T05:45:36;4.60;;;2.03;;
55655;SDS011;41530;52.382;5.270;2022-10-23T05:48:03;6.35;;;1.70;;
55655;SDS011;41530;52.382;5.270;2022-10-23T05:50:47;3.65;;;1.60;;
55655;SDS011;41530;52.382;5.270;2022-10-23T05:53:13;4.28;;;1.70;;
55655;SDS011;41530;52.382;5.270;2022-10-23T05:55:40;3.45;;;1.88;;
55655;SDS011;41530;52.382;5.270;2022-10-23T05:58:06;4.35;;;1.67;;
55655;SDS011;41530;52.382;5.270;2022-10-23T06:00:32;3.05;;;1.60;;
55655;SDS011;41530;52.382;5.270;2022-10-23T06:02:59;2.55;;;1.40;;
55655;SDS011;41530;52.382;5.270;2022-10-23T06:05:26;4.72;;;1.73;;
55655;SDS011;41530;52.382;5.270;2022-10-23T06:07:55;4.05;;;1.55;;
55655;SDS011;41530;52.382;5.270;2022-10-23T06:10:22;5.28;;;1.58;;
55655;SDS011;41530;52.382;5.270;2022-10-23T06:12:49;3.50;;;1.35;;
55655;SDS011;41530;52.382;5.270;2022-10-23T06:15:16;3.63;;;1.60;;
55655;SDS011;41530;52.382;5.270;2022-10-23T06:17:42;4.22;;;1.85;;
55655;SDS011;41530;52.382;5.270;2022-10-23T06:20:09;3.50;;;1.52;;
55655;SDS011;41530;52.382;5.270;2022-10-23T06:22:35;10.52;;;1.80;;
55655;SDS011;41530;52.382;5.270;2022-10-23T06:25:02;4.32;;;1.83;;
55655;SDS011;41530;52.382;5.270;2022-10-23T06:27:28;5.35;;;1.95;;
55655;SDS011;41530;52.382;5.270;2022-10-23T06:29:55;4.22;;;1.70;;
55655;SDS011;41530;52.382;5.270;2022-10-23T06:32:21;4.82;;;1.40;;
55655;SDS011;41530;52.382;5.270;2022-10-23T06:34:47;3.05;;;1.83;;
55655;SDS011;41530;52.382;5.270;2022-10-23T06:37:14;2.85;;;1.80;;
55655;SDS011;41530;52.382;5.270;2022-10-23T06:39:40;4.75;;;1.70;;
55655;SDS011;41530;52.382;5.270;2022-10-23T06:42:06;3.42;;;1.67;;
55655;SDS011;41530;52.382;5.270;2022-10-23T06:44:33;1.95;;;1.70;;
55655;SDS011;41530;52.382;5.270;2022-10-23T06:47:00;6.22;;;1.38;;
55655;SDS011;41530;52.382;5.270;2022-10-23T06:49:27;3.30;;;1.60;;
55655;SDS011;41530;52.382;5.270;2022-10-23T06:51:53;2.20;;;1.20;;
55655;SDS011;41530;52.382;5.270;2022-10-23T06:54:20;3.45;;;1.75;;
55655;SDS011;41530;52.382;5.270;2022-10-23T06:56:46;4.47;;;1.60;;
55655;SDS011;41530;52.382;5.270;2022-10-23T06:59:12;4.53;;;1.40;;
55655;SDS011;41530;52.382;5.270;2022-10-23T07:01:39;4.55;;;1.75;;
55655;SDS011;41530;52.382;5.270;2022-10-23T07:04:06;3.95;;;1.50;;
55655;SDS011;41530;52.382;5.270;2022-10-23T07:06:32;2.15;;;1.30;;
55655;SDS011;41530;52.382;5.270;2022-10-23T07:08:58;1.85;;;1.13;;
55655;SDS011;41530;52.382;5.270;2022-10-23T07:11:25;5.97;;;1.27;;
55655;SDS011;41530;52.382;5.270;2022-10-23T07:13:52;2.92;;;1.33;;
55655;SDS011;41530;52.382;5.270;2022-10-23T07:16:19;1.38;;;1.00;;
55655;SDS011;41530;52.382;5.270;2022-10-23T07:18:46;2.17;;;1.17;;
55655;SDS011;41530;52.382;5.270;2022-10-23T07:21:13;4.72;;;1.35;;
55655;SDS011;41530;52.382;5.270;2022-10-23T07:23:40;2.38;;;1.30;;
55655;SDS011;41530;52.382;5.270;2022-10-23T07:26:11;2.83;;;1.20;;
55655;SDS011;41530;52.382;5.270;2022-10-23T07:28:40;3.60;;;1.25;;
55655;SDS011;41530;52.382;5.270;2022-10-23T07:31:07;2.75;;;1.27;;
55655;SDS011;41530;52.382;5.270;2022-10-23T07:33:33;1.73;;;1.15;;
55655;SDS011;41530;52.382;5.270;2022-10-23T07:35:59;1.85;;;1.02;;
55655;SDS011;41530;52.382;5.270;2022-10-23T07:38:26;3.35;;;1.20;;
55655;SDS011;41530;52.382;5.270;2022-10-23T07:40:53;3.05;;;1.15;;
55655;SDS011;41530;52.382;5.270;2022-10-23T07:43:22;3.10;;;1.00;;
55655;SDS011;41530;52.382;5.270;2022-10-23T07:45:51;2.10;;;1.08;;
55655;SDS011;41530;52.382;5.270;2022-10-23T07:48:17;2.63;;;1.20;;
55655;SDS011;41530;52.382;5.270;2022-10-23T07:50:44;2.55;;;1.20;;
55655;SDS011;41530;52.382;5.270;2022-10-23T07:53:20;2.40;;;1.40;;
55655;SDS011;41530;52.382;5.270;2022-10-23T07:55:54;1.23;;;1.00;;
55655;SDS011;41530;52.382;5.270;2022-10-23T07:58:21;2.15;;;0.90;;
55655;SDS011;41530;52.382;5.270;2022-10-23T08:00:49;1.88;;;1.20;;
55655;SDS011;41530;52.382;5.270;2022-10-23T08:03:19;1.48;;;1.00;;
55655;SDS011;41530;52.382;5.270;2022-10-23T08:05:46;1.80;;;1.00;;
55655;SDS011;41530;52.382;5.270;2022-10-23T08:08:12;3.45;;;1.00;;
55655;SDS011;41530;52.382;5.270;2022-10-23T08:10:38;2.22;;;1.10;;
55655;SDS011;41530;52.382;5.270;2022-10-23T08:13:08;1.42;;;1.05;;
55655;SDS011;41530;52.382;5.270;2022-10-23T08:15:34;2.35;;;1.10;;
55655;SDS011;41530;52.382;5.270;2022-10-23T08:18:01;1.50;;;0.88;;
55655;SDS011;41530;52.382;5.270;2022-10-23T08:20:27;1.30;;;0.82;;
55655;SDS011;41530;52.382;5.270;2022-10-23T08:22:53;6.35;;;1.02;;
55655;SDS011;41530;52.382;5.270;2022-10-23T08:25:21;1.95;;;1.20;;
55655;SDS011;41530;52.382;5.270;2022-10-23T08:27:51;1.67;;;1.00;;
55655;SDS011;41530;52.382;5.270;2022-10-23T08:30:17;1.55;;;0.80;;
55655;SDS011;41530;52.382;5.270;2022-10-23T08:32:43;1.80;;;1.00;;
55655;SDS011;41530;52.382;5.270;2022-10-23T08:35:10;1.10;;;0.90;;
55655;SDS011;41530;52.382;5.270;2022-10-23T08:37:36;1.38;;;0.93;;
55655;SDS011;41530;52.382;5.270;2022-10-23T08:40:02;1.50;;;1.00;;
55655;SDS011;41530;52.382;5.270;2022-10-23T08:42:29;2.28;;;1.10;;
55655;SDS011;41530;52.382;5.270;2022-10-23T08:45:01;1.50;;;0.88;;
55655;SDS011;41530;52.382;5.270;2022-10-23T08:47:43;1.15;;;0.88;;
55655;SDS011;41530;52.382;5.270;2022-10-23T08:50:31;2.20;;;0.88;;
55655;SDS011;41530;52.382;5.270;2022-10-23T08:53:02;1.60;;;0.85;;
55655;SDS011;41530;52.382;5.270;2022-10-23T08:55:29;2.67;;;1.00;;
55655;SDS011;41530;52.382;5.270;2022-10-23T09:00:27;1.38;;;1.00;;
55655;SDS011;41530;52.382;5.270;2022-10-23T09:02:54;2.38;;;1.00;;
55655;SDS011;41530;52.382;5.270;2022-10-23T09:08:10;1.08;;;0.93;;
55655;SDS011;41530;52.382;5.270;2022-10-23T09:11:28;1.43;;;1.00;;
55655;SDS011;41530;52.382;5.270;2022-10-23T09:16:09;1.17;;;0.90;;
55655;SDS011;41530;52.382;5.270;2022-10-23T09:18:39;2.42;;;0.90;;
55655;SDS011;41530;52.382;5.270;2022-10-23T09:21:09;1.35;;;0.90;;
55655;SDS011;41530;52.382;5.270;2022-10-23T09:23:36;1.33;;;0.90;;
55655;SDS011;41530;52.382;5.270;2022-10-23T09:26:06;1.45;;;0.95;;
55655;SDS011;41530;52.382;5.270;2022-10-23T09:28:40;1.75;;;1.00;;
55655;SDS011;41530;52.382;5.270;2022-10-23T09:31:09;0.90;;;0.70;;
55655;SDS011;41530;52.382;5.270;2022-10-23T09:33:37;1.25;;;1.00;;
55655;SDS011;41530;52.382;5.270;2022-10-23T09:36:05;1.48;;;1.00;;
55655;SDS011;41530;52.382;5.270;2022-10-23T09:38:35;1.48;;;0.93;;
55655;SDS011;41530;52.382;5.270;2022-10-23T09:43:28;2.13;;;0.80;;
55655;SDS011;41530;52.382;5.270;2022-10-23T09:45:58;1.15;;;0.80;;
55655;SDS011;41530;52.382;5.270;2022-10-23T09:48:25;1.17;;;0.90;;
55655;SDS011;41530;52.382;5.270;2022-10-23T09:50:52;1.25;;;0.82;;
55655;SDS011;41530;52.382;5.270;2022-10-23T09:53:30;1.45;;;1.00;;
55655;SDS011;41530;52.382;5.270;2022-10-23T09:56:11;0.85;;;0.73;;
55655;SDS011;41530;52.382;5.270;2022-10-23T09:58:54;1.65;;;0.85;;
55655;SDS011;41530;52.382;5.270;2022-10-23T10:01:23;1.00;;;0.90;;
55655;SDS011;41530;52.382;5.270;2022-10-23T10:03:50;2.63;;;0.82;;
55655;SDS011;41530;52.382;5.270;2022-10-23T10:06:21;1.30;;;0.80;;
55655;SDS011;41530;52.382;5.270;2022-10-23T10:08:49;1.02;;;0.80;;
55655;SDS011;41530;52.382;5.270;2022-10-23T10:18:56;1.95;;;0.90;;
55655;SDS011;41530;52.382;5.270;2022-10-23T10:24:16;1.02;;;0.63;;
55655;SDS011;41530;52.382;5.270;2022-10-23T10:32:00;1.13;;;0.70;;
55655;SDS011;41530;52.382;5.270;2022-10-23T10:34:36;0.90;;;0.73;;
55655;SDS011;41530;52.382;5.270;2022-10-23T10:52:59;2.55;;;0.68;;
55655;SDS011;41530;52.382;5.270;2022-10-23T10:55:31;1.00;;;0.73;;
55655;SDS011;41530;52.382;5.270;2022-10-23T10:58:01;5.38;;;1.02;;
55655;SDS011;41530;52.382;5.270;2022-10-23T11:00:32;3.28;;;0.80;;
55655;SDS011;41530;52.382;5.270;2022-10-23T11:05:32;1.15;;;0.73;;
55655;SDS011;41530;52.382;5.270;2022-10-23T11:08:02;4.53;;;1.00;;
55655;SDS011;41530;52.382;5.270;2022-10-23T11:10:30;1.92;;;1.10;;
55655;SDS011;41530;52.382;5.270;2022-10-23T11:12:57;0.80;;;0.73;;
55655;SDS011;41530;52.382;5.270;2022-10-23T11:15:25;1.35;;;0.90;;
55655;SDS011;41530;52.382;5.270;2022-10-23T11:17:54;3.80;;;0.93;;
55655;SDS011;41530;52.382;5.270;2022-10-23T11:22:54;1.45;;;0.80;;
55655;SDS011;41530;52.382;5.270;2022-10-23T11:28:16;0.80;;;0.80;;
55655;SDS011;41530;52.382;5.270;2022-10-23T11:38:31;1.60;;;0.80;;
55655;SDS011;41530;52.382;5.270;2022-10-23T11:40:59;2.15;;;0.75;;
55655;SDS011;41530;52.382;5.270;2022-10-23T11:43:46;1.55;;;0.80;;
55655;SDS011;41530;52.382;5.270;2022-10-23T11:46:12;1.00;;;0.70;;
55655;SDS011;41530;52.382;5.270;2022-10-23T11:48:42;1.08;;;0.82;;
55655;SDS011;41530;52.382;5.270;2022-10-23T12:01:50;1.63;;;0.80;;
55655;SDS011;41530;52.382;5.270;2022-10-23T12:04:23;1.35;;;0.90;;
55655;SDS011;41530;52.382;5.270;2022-10-23T12:06:52;1.63;;;1.00;;
55655;SDS011;41530;52.382;5.270;2022-10-23T12:09:26;3.83;;;0.73;;
55655;SDS011;41530;52.382;5.270;2022-10-23T12:12:01;2.07;;;0.63;;
55655;SDS011;41530;52.382;5.270;2022-10-23T12:14:32;2.85;;;0.70;;
55655;SDS011;41530;52.382;5.270;2022-10-23T12:16:58;6.40;;;0.93;;
55655;SDS011;41530;52.382;5.270;2022-10-23T12:19:29;1.23;;;0.75;;
55655;SDS011;41530;52.382;5.270;2022-10-23T12:21:57;3.40;;;0.80;;
55655;SDS011;41530;52.382;5.270;2022-10-23T12:24:36;1.20;;;0.80;;
55655;SDS011;41530;52.382;5.270;2022-10-23T12:27:08;1.50;;;0.85;;
55655;SDS011;41530;52.382;5.270;2022-10-23T12:40:22;0.90;;;0.80;;
55655;SDS011;41530;52.382;5.270;2022-10-23T12:42:55;2.22;;;0.82;;
55655;SDS011;41530;52.382;5.270;2022-10-23T12:45:26;1.05;;;0.75;;
55655;SDS011;41530;52.382;5.270;2022-10-23T12:47:53;3.22;;;0.73;;
55655;SDS011;41530;52.382;5.270;2022-10-23T12:50:24;2.63;;;1.02;;
55655;SDS011;41530;52.382;5.270;2022-10-23T12:52:54;2.80;;;0.88;;
55655;SDS011;41530;52.382;5.270;2022-10-23T12:55:22;0.52;;;0.52;;
55655;SDS011;41530;52.382;5.270;2022-10-23T12:57:49;1.15;;;0.63;;
55655;SDS011;41530;52.382;5.270;2022-10-23T13:00:20;1.40;;;0.82;;
55655;SDS011;41530;52.382;5.270;2022-10-23T13:02:59;3.83;;;0.80;;
55655;SDS011;41530;52.382;5.270;2022-10-23T13:05:25;2.45;;;0.80;;
55655;SDS011;41530;52.382;5.270;2022-10-23T13:07:52;2.90;;;0.80;;
55655;SDS011;41530;52.382;5.270;2022-10-23T13:10:19;6.68;;;0.70;;
55655;SDS011;41530;52.382;5.270;2022-10-23T13:12:51;0.50;;;0.50;;
55655;SDS011;41530;52.382;5.270;2022-10-23T13:15:18;3.30;;;0.70;;
55655;SDS011;41530;52.382;5.270;2022-10-23T13:17:46;1.30;;;0.60;;
55655;SDS011;41530;52.382;5.270;2022-10-23T13:22:42;0.65;;;0.60;;
55655;SDS011;41530;52.382;5.270;2022-10-23T13:28:24;2.33;;;0.90;;
55655;SDS011;41530;52.382;5.270;2022-10-23T13:33:45;0.70;;;0.60;;
55655;SDS011;41530;52.382;5.270;2022-10-23T13:36:20;1.77;;;0.60;;
55655;SDS011;41530;52.382;5.270;2022-10-23T13:38:58;0.80;;;0.50;;
55655;SDS011;41530;52.382;5.270;2022-10-23T13:41:26;2.60;;;0.70;;
55655;SDS011;41530;52.382;5.270;2022-10-23T13:43:53;1.45;;;0.70;;
55655;SDS011;41530;52.382;5.270;2022-10-23T13:46:20;1.70;;;0.70;;
55655;SDS011;41530;52.382;5.270;2022-10-23T13:48:53;0.75;;;0.57;;
55655;SDS011;41530;52.382;5.270;2022-10-23T13:51:32;2.45;;;0.70;;
55655;SDS011;41530;52.382;5.270;2022-10-23T13:54:11;1.27;;;0.70;;
55655;SDS011;41530;52.382;5.270;2022-10-23T13:56:39;3.60;;;0.60;;
55655;SDS011;41530;52.382;5.270;2022-10-23T13:59:05;2.97;;;1.00;;
55655;SDS011;41530;52.382;5.270;2022-10-23T14:01:38;1.10;;;0.77;;
55655;SDS011;41530;52.382;5.270;2022-10-23T14:04:07;1.65;;;0.80;;
55655;SDS011;41530;52.382;5.270;2022-10-23T14:06:34;3.25;;;0.80;;
55655;SDS011;41530;52.382;5.270;2022-10-23T14:09:07;1.50;;;0.60;;
55655;SDS011;41530;52.382;5.270;2022-10-23T14:11:39;0.70;;;0.70;;
55655;SDS011;41530;52.382;5.270;2022-10-23T14:14:08;1.60;;;0.80;;
55655;SDS011;41530;52.382;5.270;2022-10-23T14:16:35;1.70;;;0.80;;
55655;SDS011;41530;52.382;5.270;2022-10-23T14:19:01;0.80;;;0.50;;
55655;SDS011;41530;52.382;5.270;2022-10-23T14:21:28;2.08;;;0.70;;
55655;SDS011;41530;52.382;5.270;2022-10-23T14:23:54;1.27;;;0.70;;
55655;SDS011;41530;52.382;5.270;2022-10-23T14:26:22;1.50;;;0.60;;
55655;SDS011;41530;52.382;5.270;2022-10-23T14:28:57;1.50;;;0.70;;
55655;SDS011;41530;52.382;5.270;2022-10-23T14:34:10;3.05;;;0.75;;
55655;SDS011;41530;52.382;5.270;2022-10-23T14:36:54;1.58;;;0.63;;
55655;SDS011;41530;52.382;5.270;2022-10-23T14:39:34;1.77;;;0.60;;
55655;SDS011;41530;52.382;5.270;2022-10-23T14:42:00;0.60;;;0.60;;
55655;SDS011;41530;52.382;5.270;2022-10-23T14:44:27;1.73;;;0.80;;
55655;SDS011;41530;52.382;5.270;2022-10-23T14:46:56;1.60;;;0.80;;
55655;SDS011;41530;52.382;5.270;2022-10-23T14:49:25;4.72;;;0.80;;
55655;SDS011;41530;52.382;5.270;2022-10-23T14:51:51;1.23;;;0.60;;
55655;SDS011;41530;52.382;5.270;2022-10-23T14:54:18;2.90;;;0.68;;
55655;SDS011;41530;52.382;5.270;2022-10-23T14:56:45;4.65;;;0.80;;
55655;SDS011;41530;52.382;5.270;2022-10-23T14:59:11;0.75;;;0.70;;
55655;SDS011;41530;52.382;5.270;2022-10-23T15:01:41;1.27;;;0.63;;
55655;SDS011;41530;52.382;5.270;2022-10-23T15:04:10;1.23;;;0.77;;
55655;SDS011;41530;52.382;5.270;2022-10-23T15:06:39;1.15;;;0.73;;
55655;SDS011;41530;52.382;5.270;2022-10-23T15:09:06;1.52;;;0.68;;
55655;SDS011;41530;52.382;5.270;2022-10-23T15:11:35;1.35;;;0.57;;
55655;SDS011;41530;52.382;5.270;2022-10-23T15:14:08;1.23;;;0.68;;
55655;SDS011;41530;52.382;5.270;2022-10-23T15:16:52;0.60;;;0.52;;
55655;SDS011;41530;52.382;5.270;2022-10-23T15:19:18;1.27;;;0.63;;
55655;SDS011;41530;52.382;5.270;2022-10-23T15:21:46;1.48;;;0.80;;
55655;SDS011;41530;52.382;5.270;2022-10-23T15:24:18;1.52;;;0.73;;
55655;SDS011;41530;52.382;5.270;2022-10-23T15:26:46;3.08;;;0.70;;
55655;SDS011;41530;52.382;5.270;2022-10-23T15:29:13;0.60;;;0.60;;
55655;SDS011;41530;52.382;5.270;2022-10-23T15:31:43;0.90;;;0.60;;
55655;SDS011;41530;52.382;5.270;2022-10-23T15:34:17;1.20;;;0.75;;
55655;SDS011;41530;52.382;5.270;2022-10-23T15:36:45;3.47;;;0.57;;
55655;SDS011;41530;52.382;5.270;2022-10-23T15:39:12;1.00;;;0.70;;
55655;SDS011;41530;52.382;5.270;2022-10-23T15:41:40;0.80;;;0.60;;
55655;SDS011;41530;52.382;5.270;2022-10-23T15:44:07;0.90;;;0.60;;
55655;SDS011;41530;52.382;5.270;2022-10-23T15:46:34;2.00;;;0.70;;
55655;SDS011;41530;52.382;5.270;2022-10-23T15:49:01;1.45;;;0.60;;
55655;SDS011;41530;52.382;5.270;2022-10-23T15:51:28;1.23;;;1.02;;
55655;SDS011;41530;52.382;5.270;2022-10-23T15:53:54;1.23;;;0.90;;
55655;SDS011;41530;52.382;5.270;2022-10-23T15:56:22;4.38;;;0.95;;
55655;SDS011;41530;52.382;5.270;2022-10-23T15:58:49;0.82;;;0.60;;
55655;SDS011;41530;52.382;5.270;2022-10-23T16:01:15;0.95;;;0.70;;
55655;SDS011;41530;52.382;5.270;2022-10-23T16:03:42;0.95;;;0.70;;
55655;SDS011;41530;52.382;5.270;2022-10-23T16:06:10;1.65;;;0.80;;
55655;SDS011;41530;52.382;5.270;2022-10-23T16:08:37;4.05;;;0.95;;
55655;SDS011;41530;52.382;5.270;2022-10-23T16:11:04;0.50;;;0.50;;
55655;SDS011;41530;52.382;5.270;2022-10-23T16:13:37;1.17;;;0.55;;
55655;SDS011;41530;52.382;5.270;2022-10-23T16:16:03;1.10;;;0.57;;
55655;SDS011;41530;52.382;5.270;2022-10-23T16:18:30;1.13;;;0.75;;
55655;SDS011;41530;52.382;5.270;2022-10-23T16:20:56;3.90;;;0.70;;
55655;SDS011;41530;52.382;5.270;2022-10-23T16:23:23;2.03;;;0.90;;
55655;SDS011;41530;52.382;5.270;2022-10-23T16:25:53;3.60;;;0.77;;
55655;SDS011;41530;52.382;5.270;2022-10-23T16:28:21;0.68;;;0.68;;
55655;SDS011;41530;52.382;5.270;2022-10-23T16:30:48;1.15;;;0.80;;
55655;SDS011;41530;52.382;5.270;2022-10-23T16:33:14;1.20;;;0.70;;
55655;SDS011;41530;52.382;5.270;2022-10-23T16:35:41;1.13;;;0.60;;
55655;SDS011;41530;52.382;5.270;2022-10-23T16:38:07;4.25;;;0.85;;
55655;SDS011;41530;52.382;5.270;2022-10-23T16:40:34;1.80;;;0.95;;
55655;SDS011;41530;52.382;5.270;2022-10-23T16:43:00;0.77;;;0.60;;
55655;SDS011;41530;52.382;5.270;2022-10-23T16:45:27;3.15;;;0.88;;
55655;SDS011;41530;52.382;5.270;2022-10-23T16:47:53;2.67;;;0.75;;
55655;SDS011;41530;52.382;5.270;2022-10-23T16:50:20;1.52;;;0.90;;
55655;SDS011;41530;52.382;5.270;2022-10-23T16:52:46;1.48;;;0.90;;
55655;SDS011;41530;52.382;5.270;2022-10-23T16:55:17;1.00;;;0.80;;
55655;SDS011;41530;52.382;5.270;2022-10-23T16:57:43;2.17;;;1.20;;
55655;SDS011;41530;52.382;5.270;2022-10-23T17:00:10;1.63;;;1.00;;
55655;SDS011;41530;52.382;5.270;2022-10-23T17:02:38;1.77;;;1.00;;
55655;SDS011;41530;52.382;5.270;2022-10-23T17:05:05;2.40;;;0.95;;
55655;SDS011;41530;52.382;5.270;2022-10-23T17:07:31;2.42;;;0.98;;
55655;SDS011;41530;52.382;5.270;2022-10-23T17:09:58;1.77;;;0.88;;
55655;SDS011;41530;52.382;5.270;2022-10-23T17:12:24;1.13;;;1.02;;
55655;SDS011;41530;52.382;5.270;2022-10-23T17:14:51;3.97;;;1.05;;
55655;SDS011;41530;52.382;5.270;2022-10-23T17:17:17;1.45;;;0.98;;